Historique des mesures à Cassis (13260), France
Quotidien Résumé Juin 5, 2017 Unités:  Métrique    US   Métrique/US
« Précédent (Jour)
Suivant (Jour) »
Quotidien Hebdomadaire Mensuel Annuel Période au choix
  Maximum: Minimum: Moyenne:
Température: TemperatureC °C 18.0 °C 21.9 °C
Point de rosée: DewpointC °C 10.7 °C 13 °C
Humidité: Humidity % 45 % 54 %
Vitesse du vent: 0 km/h 0 km/h 5.5 km/h
Rafales: 0 km/h - -
Vent:- - SSE
Pression: PressurehPa hPa 1006.3 hPa -
Précipitations: 0.0 mm    
Historical Graphs
 
 
Mesures pour : Juin 5, 2017
Heure Temperature Point de rosée Pression Vent Vitesse du vent Rafales Humidité Pluie (par heure) Conditions
TemperatureC °C DewpointC °C PressurehPa hPa Calm     Humidity % HourlyPrecipMM mm SoftwareType W/m2
00:10 20.8 °C 12.5 °C 1009.7 hPa Calm   19.6 km/h 59 % 0.0 mm open2300-1.11 W/m2
01:10 20.3 °C 12.5 °C 1009.0 hPa Calm   4.7 km/h 61 % 0.0 mm open2300-1.11 W/m2
02:10 19.9 °C 12.1 °C 1009.0 hPa NW 5.6 km/h 5.6 km/h 61 % 0.0 mm open2300-1.11 W/m2
03:10 19.8 °C 12.1 °C 1008.4 hPa NNW 4.2 km/h 4.2 km/h 61 % 0.0 mm open2300-1.11 W/m2
04:10 18.9 °C 11.2 °C 1008.0 hPa NW 23.8 km/h 26.2 km/h 61 % 0.0 mm open2300-1.11 W/m2
05:11 18.4 °C 10.7 °C 1007.3 hPa North 14 km/h 34.8 km/h 61 % 0.0 mm open2300-1.11 W/m2
06:10 18.0 °C 10.8 °C 1007.3 hPa North 4.2 km/h 10.3 km/h 63 % 0.0 mm open2300-1.11 W/m2
07:11 18.5 °C 11.1 °C 1008.0 hPa Calm   4.7 km/h 62 % 0.0 mm open2300-1.11 W/m2
08:10 18.8 °C 11.4 °C 1007.7 hPa ENE 14 km/h 14 km/h 62 % 0.0 mm open2300-1.11 W/m2
09:10 19.8 °C 12.1 °C 1008.0 hPa North 6.4 km/h 6.4 km/h 61 % 0.0 mm open2300-1.11 W/m2
10:10 21.2 °C 12.6 °C 1008.0 hPa WNW 15 km/h 15.6 km/h 58 % 0.0 mm open2300-1.11 W/m2
11:11 24.7 °C 14.4 °C 1007.7 hPa SSE 6.4 km/h 10.9 km/h 53 % 0.0 mm open2300-1.11 W/m2
12:10 27.5 °C 15.1 °C 1008.0 hPa Calm   11.6 km/h 47 % 0.0 mm open2300-1.11 W/m2
13:10 28.3 °C 15.5 °C 1007.7 hPa South 8 km/h 8 km/h 46 % 0.0 mm open2300-1.11 W/m2
14:10 28.6 °C 15.4 °C 1007.7 hPa SSE 15.6 km/h 21.6 km/h 45 % 0.0 mm open2300-1.11 W/m2
15:11 28.5 °C 15.4 °C 1007.7 hPa SSE 11.6 km/h 11.6 km/h 45 % 0.0 mm open2300-1.11 W/m2
16:10 27.5 °C 15.8 °C 1007.7 hPa SSE 4.2 km/h 9.3 km/h 49 % 0.0 mm open2300-1.11 W/m2
17:10 26.9 °C 15.9 °C 1006.7 hPa SE 2.3 km/h 3.4 km/h 51 % 0.0 mm open2300-1.11 W/m2
18:10 25.8 °C 15.5 °C 1006.7 hPa Calm   8 km/h 53 % 0.0 mm open2300-1.11 W/m2
19:11 24.8 °C 15.1 °C 1006.3 hPa SE 3.4 km/h 4.7 km/h 55 % 0.0 mm open2300-1.11 W/m2
20:10 24.3 °C 14.9 °C 1006.3 hPa Calm   1.8 km/h 56 % 0.0 mm open2300-1.11 W/m2
21:10 23.1 °C 14.6 °C 1006.3 hPa Calm     59 % 0.0 mm open2300-1.11 W/m2
22:10 22.3 °C 14.5 °C 1007.0 hPa Calm     61 % 0.0 mm open2300-1.11 W/m2
23:10 21.5 °C 13.9 °C 1007.3 hPa Calm     62 % 0.0 mm open2300-1.11 W/m2
Observations météo à CASSIS
WU-History script by Weather Underground - 1 mb